createdAt,value
2018-07-04T00:00:10.849Z,0.00
2018-07-04T00:01:10.830Z,0.00
2018-07-04T00:02:10.817Z,0.00
2018-07-04T00:03:10.803Z,0.00
2018-07-04T00:04:10.811Z,0.00
2018-07-04T00:05:10.784Z,0.00
2018-07-04T00:06:10.778Z,0.00
2018-07-04T00:07:10.767Z,0.00
2018-07-04T00:08:10.745Z,0.00
2018-07-04T00:09:10.724Z,0.00
2018-07-04T00:10:10.711Z,0.00
2018-07-04T00:11:10.700Z,0.00
2018-07-04T00:12:10.686Z,0.00
2018-07-04T00:13:10.676Z,0.00
2018-07-04T00:14:10.660Z,0.00
2018-07-04T00:15:10.650Z,0.00
2018-07-04T00:16:10.644Z,0.00
2018-07-04T00:17:10.622Z,0.00
2018-07-04T00:18:10.610Z,0.00
2018-07-04T00:19:10.598Z,0.00
2018-07-04T00:20:10.635Z,0.00
2018-07-04T00:21:10.571Z,0.00
2018-07-04T00:22:10.561Z,0.00
2018-07-04T00:23:10.547Z,0.00
2018-07-04T00:24:10.532Z,0.00
2018-07-04T00:25:10.520Z,0.00
2018-07-04T00:26:10.506Z,0.00
2018-07-04T00:27:10.494Z,0.00
2018-07-04T00:28:10.481Z,0.00
2018-07-04T00:29:10.473Z,0.00
2018-07-04T00:30:10.452Z,0.00
2018-07-04T00:31:10.445Z,0.00
2018-07-04T00:32:10.427Z,0.00
2018-07-04T00:33:10.414Z,0.00
2018-07-04T00:34:10.407Z,0.00
2018-07-04T00:35:10.389Z,0.00
2018-07-04T00:36:10.377Z,0.00
2018-07-04T00:37:10.363Z,0.00
2018-07-04T00:38:10.348Z,0.00
2018-07-04T00:39:10.337Z,0.00
2018-07-04T00:40:10.324Z,0.00
2018-07-04T00:41:10.312Z,0.00
2018-07-04T00:42:10.296Z,0.00
2018-07-04T00:43:10.287Z,0.00
2018-07-04T00:44:10.271Z,0.00
2018-07-04T00:45:10.259Z,0.00
2018-07-04T00:46:10.244Z,0.00
2018-07-04T00:47:10.231Z,0.00
2018-07-04T00:48:10.218Z,0.00
2018-07-04T00:49:10.204Z,0.00
2018-07-04T00:50:10.191Z,0.00
2018-07-04T00:51:10.179Z,0.00
2018-07-04T00:52:10.174Z,0.00
2018-07-04T00:53:10.151Z,0.00
2018-07-04T00:54:10.137Z,0.00
2018-07-04T00:55:10.126Z,0.00
2018-07-04T00:56:10.113Z,0.00
2018-07-04T00:57:10.099Z,0.00
2018-07-04T00:58:10.087Z,0.00
2018-07-04T00:59:10.071Z,0.00
2018-07-04T01:00:10.060Z,0.00
2018-07-04T01:01:10.046Z,0.00
2018-07-04T01:02:10.035Z,0.00
2018-07-04T01:03:10.023Z,0.00
2018-07-04T01:04:10.008Z,0.00
2018-07-04T01:05:09.992Z,0.00
2018-07-04T01:06:09.980Z,0.00
2018-07-04T01:07:09.968Z,0.00
2018-07-04T01:08:09.953Z,0.00
2018-07-04T01:09:09.941Z,0.00
2018-07-04T01:10:09.925Z,0.00
2018-07-04T01:11:09.912Z,0.00
2018-07-04T01:12:09.900Z,0.00
2018-07-04T01:13:09.885Z,0.00
2018-07-04T01:14:09.874Z,0.00
2018-07-04T01:15:09.860Z,0.00
2018-07-04T01:16:09.852Z,0.00
2018-07-04T01:17:09.838Z,0.00
2018-07-04T01:18:09.818Z,0.00
2018-07-04T01:19:09.804Z,0.00
2018-07-04T01:20:09.792Z,0.00
2018-07-04T01:21:09.778Z,0.00
2018-07-04T01:22:09.764Z,0.00
2018-07-04T01:23:09.751Z,0.00
2018-07-04T01:24:09.737Z,0.00
2018-07-04T01:25:09.725Z,0.00
2018-07-04T01:26:09.710Z,0.00
2018-07-04T01:27:09.697Z,0.00
2018-07-04T01:28:09.686Z,0.00
2018-07-04T01:29:09.670Z,0.00
2018-07-04T01:30:09.663Z,0.00
2018-07-04T01:31:09.651Z,0.00
2018-07-04T01:32:09.630Z,0.00
2018-07-04T01:33:09.624Z,0.00
2018-07-04T01:34:09.607Z,0.00
2018-07-04T01:35:09.589Z,0.00
2018-07-04T01:36:09.584Z,0.00
2018-07-04T01:37:09.563Z,0.00
2018-07-04T01:38:09.550Z,0.00
2018-07-04T01:39:09.545Z,0.00
2018-07-04T01:40:09.523Z,0.00
2018-07-04T01:41:09.509Z,0.00
2018-07-04T01:42:09.507Z,0.00
2018-07-04T01:43:09.482Z,0.00
2018-07-04T01:44:09.468Z,0.00
2018-07-04T01:45:09.459Z,0.00
2018-07-04T01:46:09.440Z,0.00
2018-07-04T01:47:09.428Z,0.00
2018-07-04T01:48:09.429Z,0.00
2018-07-04T01:49:09.408Z,0.00
2018-07-04T01:50:09.430Z,0.00
2018-07-04T01:51:09.371Z,0.00
2018-07-04T01:52:09.358Z,0.00
2018-07-04T01:53:09.349Z,0.00
2018-07-04T01:54:09.330Z,0.00
2018-07-04T01:55:09.317Z,0.00
2018-07-04T01:56:09.305Z,0.00
2018-07-04T01:57:09.292Z,0.00
2018-07-04T01:58:09.275Z,0.00
2018-07-04T01:59:09.269Z,0.00
2018-07-04T02:00:09.252Z,0.00
2018-07-04T02:01:09.235Z,0.00
2018-07-04T02:02:09.371Z,0.00
2018-07-04T02:03:09.206Z,0.00
2018-07-04T02:04:09.195Z,0.00
2018-07-04T02:05:09.180Z,0.00
2018-07-04T02:06:09.174Z,0.00
2018-07-04T02:07:09.153Z,0.00
2018-07-04T02:08:09.137Z,0.00
2018-07-04T02:09:09.125Z,0.00
2018-07-04T02:10:09.115Z,0.00
2018-07-04T02:11:09.097Z,0.00
2018-07-04T02:12:09.086Z,0.00
2018-07-04T02:13:09.069Z,0.00
2018-07-04T02:14:09.055Z,0.00
2018-07-04T02:15:09.041Z,0.00
2018-07-04T02:16:09.028Z,0.00
2018-07-04T02:17:09.019Z,0.00
2018-07-04T02:18:09.000Z,0.00
2018-07-04T02:19:08.985Z,0.00
2018-07-04T02:20:08.972Z,0.00
2018-07-04T02:21:08.990Z,0.00
2018-07-04T02:22:08.960Z,0.00
2018-07-04T02:23:08.932Z,0.00
2018-07-04T02:24:08.918Z,0.00
2018-07-04T02:25:08.902Z,0.00
2018-07-04T02:26:08.889Z,0.00
2018-07-04T02:27:08.883Z,0.00
2018-07-04T02:28:08.863Z,0.00
2018-07-04T02:29:08.851Z,0.00
2018-07-04T02:30:08.834Z,0.00
2018-07-04T02:31:08.820Z,0.00
2018-07-04T02:32:08.809Z,0.00
2018-07-04T02:33:08.803Z,0.00
2018-07-04T02:34:08.796Z,0.00
2018-07-04T02:35:08.764Z,0.00
2018-07-04T02:36:08.762Z,0.00
2018-07-04T02:37:08.736Z,0.00
2018-07-04T02:38:08.722Z,0.00
2018-07-04T02:39:08.707Z,0.00
2018-07-04T02:40:08.693Z,0.00
2018-07-04T02:41:08.681Z,0.00
2018-07-04T02:42:08.666Z,0.00
2018-07-04T02:43:08.653Z,0.00
2018-07-04T02:44:08.639Z,0.00
2018-07-04T02:45:08.625Z,0.00
2018-07-04T02:46:08.609Z,0.00
2018-07-04T02:47:08.600Z,0.00
2018-07-04T02:48:08.582Z,0.00
2018-07-04T02:49:08.568Z,0.00
2018-07-04T02:50:08.553Z,0.00
2018-07-04T02:51:08.542Z,0.00
2018-07-04T02:52:08.526Z,0.00
2018-07-04T02:53:08.519Z,0.00
2018-07-04T02:54:08.497Z,0.00
2018-07-04T02:55:08.484Z,0.00
2018-07-04T02:56:08.469Z,0.00
2018-07-04T02:57:08.462Z,0.00
2018-07-04T02:58:08.443Z,5.63
2018-07-04T02:59:08.436Z,5.63
2018-07-04T03:00:08.424Z,5.63
2018-07-04T03:01:08.408Z,5.63
2018-07-04T03:02:08.387Z,5.63
2018-07-04T03:03:08.371Z,5.63
2018-07-04T03:04:08.407Z,5.63
2018-07-04T03:05:08.345Z,5.63
2018-07-04T03:06:08.329Z,5.63
2018-07-04T03:07:08.316Z,5.63
2018-07-04T03:08:08.303Z,11.25
2018-07-04T03:09:08.301Z,11.25
2018-07-04T03:10:08.273Z,11.25
2018-07-04T03:11:08.266Z,11.25
2018-07-04T03:12:08.244Z,11.25
2018-07-04T03:13:08.240Z,11.25
2018-07-04T03:14:08.215Z,16.88
2018-07-04T03:15:08.208Z,16.88
2018-07-04T03:16:08.188Z,16.88
2018-07-04T03:17:08.177Z,16.88
2018-07-04T03:18:08.161Z,22.50
2018-07-04T03:19:08.158Z,22.50
2018-07-04T03:20:08.283Z,22.50
2018-07-04T03:21:08.120Z,22.50
2018-07-04T03:22:08.103Z,22.50
2018-07-04T03:23:08.092Z,28.13
2018-07-04T03:24:08.074Z,28.13
2018-07-04T03:25:08.062Z,28.13
2018-07-04T03:26:08.054Z,28.13
2018-07-04T03:27:08.033Z,28.13
2018-07-04T03:28:08.018Z,33.75
2018-07-04T03:29:08.004Z,33.75
2018-07-04T03:30:07.988Z,33.75
2018-07-04T03:31:07.976Z,33.75
2018-07-04T03:32:07.961Z,39.38
2018-07-04T03:33:07.993Z,39.38
2018-07-04T03:34:07.932Z,39.38
2018-07-04T03:35:07.925Z,39.38
2018-07-04T03:36:07.906Z,45.00
2018-07-04T03:37:07.892Z,45.00
2018-07-04T03:38:07.877Z,50.63
2018-07-04T03:39:07.866Z,50.63
2018-07-04T03:40:07.849Z,50.63
2018-07-04T03:41:07.835Z,50.63
2018-07-04T03:42:07.821Z,56.25
2018-07-04T03:43:07.813Z,56.25
2018-07-04T03:44:07.790Z,61.88
2018-07-04T03:45:07.778Z,61.88
2018-07-04T03:46:07.761Z,67.50
2018-07-04T03:47:07.799Z,73.13
2018-07-04T03:48:07.734Z,73.13
2018-07-04T03:49:07.722Z,78.75
2018-07-04T03:50:07.707Z,84.38
2018-07-04T03:51:07.696Z,84.38
2018-07-04T03:52:07.689Z,90.00
2018-07-04T03:53:07.674Z,90.00
2018-07-04T03:54:07.649Z,95.63
2018-07-04T03:55:07.635Z,95.63
2018-07-04T03:56:07.621Z,95.63
2018-07-04T03:57:07.617Z,101.25
2018-07-04T03:58:07.599Z,106.88
2018-07-04T03:59:07.578Z,106.88
2018-07-04T04:00:07.566Z,106.88
2018-07-04T04:01:07.551Z,118.13
2018-07-04T04:02:07.537Z,112.50
2018-07-04T04:03:07.522Z,112.50
2018-07-04T04:04:07.513Z,118.13
2018-07-04T04:05:07.495Z,118.13
2018-07-04T04:06:07.481Z,118.13
2018-07-04T04:07:07.467Z,123.75
2018-07-04T04:08:07.452Z,123.75
2018-07-04T04:09:07.439Z,123.75
2018-07-04T04:10:07.431Z,123.75
2018-07-04T04:11:07.412Z,123.75
2018-07-04T04:12:07.397Z,123.75
2018-07-04T04:13:07.383Z,123.75
2018-07-04T04:14:07.367Z,118.13
2018-07-04T04:15:07.360Z,118.13
2018-07-04T04:16:07.343Z,123.75
2018-07-04T04:17:07.327Z,123.75
2018-07-04T04:18:07.319Z,123.75
2018-07-04T04:19:07.299Z,123.75
2018-07-04T04:20:07.289Z,129.38
2018-07-04T04:21:07.271Z,129.38
2018-07-04T04:22:07.257Z,135.00
2018-07-04T04:23:07.251Z,135.00
2018-07-04T04:24:07.229Z,140.63
2018-07-04T04:25:07.217Z,146.25
2018-07-04T04:26:07.201Z,146.25
2018-07-04T04:27:07.220Z,151.88
2018-07-04T04:28:07.177Z,157.50
2018-07-04T04:29:07.167Z,163.13
2018-07-04T04:30:07.147Z,168.75
2018-07-04T04:31:07.133Z,174.38
2018-07-04T04:32:07.119Z,180.00
2018-07-04T04:33:07.114Z,180.00
2018-07-04T04:34:07.090Z,185.63
2018-07-04T04:35:07.076Z,191.25
2018-07-04T04:36:07.063Z,196.88
2018-07-04T04:37:07.074Z,202.50
2018-07-04T04:38:07.040Z,202.50
2018-07-04T04:39:07.035Z,208.13
2018-07-04T04:40:07.008Z,213.75
2018-07-04T04:41:06.993Z,213.75
2018-07-04T04:42:06.986Z,219.38
2018-07-04T04:43:06.968Z,225.00
2018-07-04T04:44:06.950Z,230.63
2018-07-04T04:45:06.939Z,230.63
2018-07-04T04:46:06.921Z,236.25
2018-07-04T04:47:06.915Z,247.50
2018-07-04T04:48:06.917Z,247.50
2018-07-04T04:49:06.882Z,253.13
2018-07-04T04:50:06.872Z,258.75
2018-07-04T04:51:06.856Z,264.38
2018-07-04T04:52:06.842Z,281.25
2018-07-04T04:53:06.828Z,292.50
2018-07-04T04:54:06.818Z,298.13
2018-07-04T04:55:06.799Z,292.50
2018-07-04T04:56:06.786Z,286.88
2018-07-04T04:57:06.772Z,275.63
2018-07-04T04:58:06.760Z,258.75
2018-07-04T04:59:06.753Z,236.25
2018-07-04T05:00:06.738Z,213.75
2018-07-04T05:01:06.718Z,208.13
2018-07-04T05:02:06.705Z,196.88
2018-07-04T05:03:06.689Z,191.25
2018-07-04T05:04:06.675Z,196.88
2018-07-04T05:05:06.666Z,202.50
2018-07-04T05:06:06.650Z,202.50
2018-07-04T05:07:06.636Z,202.50
2018-07-04T05:08:06.624Z,213.75
2018-07-04T05:09:06.608Z,213.75
2018-07-04T05:10:06.598Z,219.38
2018-07-04T05:11:06.582Z,225.00
2018-07-04T05:12:06.572Z,236.25
2018-07-04T05:13:06.556Z,247.50
2018-07-04T05:14:06.550Z,258.75
2018-07-04T05:15:06.528Z,275.63
2018-07-04T05:16:06.514Z,292.50
2018-07-04T05:17:06.502Z,303.75
2018-07-04T05:18:06.487Z,303.75
2018-07-04T05:19:06.476Z,309.38
2018-07-04T05:20:06.462Z,309.38
2018-07-04T05:21:06.449Z,315.00
2018-07-04T05:22:06.434Z,320.63
2018-07-04T05:23:06.421Z,326.25
2018-07-04T05:24:06.410Z,337.50
2018-07-04T05:25:06.396Z,348.75
2018-07-04T05:26:06.383Z,360.00
2018-07-04T05:27:06.369Z,376.88
2018-07-04T05:28:06.354Z,393.75
2018-07-04T05:29:06.341Z,405.00
2018-07-04T05:30:06.330Z,421.88
2018-07-04T05:31:06.316Z,438.75
2018-07-04T05:32:06.352Z,450.00
2018-07-04T05:33:06.291Z,455.63
2018-07-04T05:34:06.284Z,444.38
2018-07-04T05:35:06.318Z,450.00
2018-07-04T05:36:06.254Z,478.13
2018-07-04T05:37:06.247Z,478.13
2018-07-04T05:38:06.231Z,478.13
2018-07-04T05:39:06.213Z,455.63
2018-07-04T05:40:06.206Z,450.00
2018-07-04T05:41:06.189Z,461.25
2018-07-04T05:42:06.174Z,523.13
2018-07-04T05:43:06.177Z,562.50
2018-07-04T05:44:06.148Z,630.00
2018-07-04T05:45:06.137Z,720.00
2018-07-04T05:46:06.130Z,967.50
2018-07-04T05:47:06.136Z,1040.63
2018-07-04T05:48:06.199Z,1012.50
2018-07-04T05:49:06.109Z,894.38
2018-07-04T05:50:06.079Z,1164.38
2018-07-04T05:51:06.064Z,1248.75
2018-07-04T05:52:06.116Z,1192.50
2018-07-04T05:53:06.043Z,1181.25
2018-07-04T05:54:06.031Z,714.38
2018-07-04T05:55:06.021Z,618.75
2018-07-04T05:56:06.013Z,590.63
2018-07-04T05:57:05.999Z,579.38
2018-07-04T05:58:05.991Z,579.38
2018-07-04T05:59:05.993Z,596.25
2018-07-04T06:00:05.972Z,635.63
2018-07-04T06:01:05.964Z,663.75
2018-07-04T06:02:05.956Z,675.00
2018-07-04T06:03:05.944Z,635.63
2018-07-04T06:04:05.929Z,686.25
2018-07-04T06:05:05.928Z,1170.00
2018-07-04T06:06:05.909Z,714.38
2018-07-04T06:07:05.899Z,691.88
2018-07-04T06:08:05.889Z,703.13
2018-07-04T06:09:05.915Z,815.63
2018-07-04T06:10:05.871Z,1496.25
2018-07-04T06:11:05.859Z,1473.75
2018-07-04T06:12:05.860Z,1383.75
2018-07-04T06:13:05.848Z,1305.00
2018-07-04T06:14:05.836Z,1575.00
2018-07-04T06:15:05.839Z,1271.25
2018-07-04T06:16:05.817Z,1012.50
2018-07-04T06:17:05.805Z,967.50
2018-07-04T06:18:05.797Z,1068.75
2018-07-04T06:19:05.790Z,1147.50
2018-07-04T06:20:05.778Z,1310.63
2018-07-04T06:21:05.775Z,1175.63
2018-07-04T06:22:05.765Z,1113.75
2018-07-04T06:23:05.756Z,1164.38
2018-07-04T06:24:05.748Z,1597.50
2018-07-04T06:25:05.741Z,1051.88
2018-07-04T06:26:05.731Z,1091.25
2018-07-04T06:27:05.724Z,967.50
2018-07-04T06:28:05.718Z,691.88
2018-07-04T06:29:05.714Z,663.75
2018-07-04T06:30:05.704Z,646.88
2018-07-04T06:31:05.695Z,635.63
2018-07-04T06:32:05.688Z,646.88
2018-07-04T06:33:05.679Z,618.75
2018-07-04T06:34:05.672Z,613.13
2018-07-04T06:35:05.666Z,613.13
2018-07-04T06:36:05.665Z,618.75
2018-07-04T06:37:05.652Z,658.13
2018-07-04T06:38:05.659Z,618.75
2018-07-04T06:39:05.687Z,613.13
2018-07-04T06:40:05.634Z,618.75
2018-07-04T06:41:05.722Z,624.38
2018-07-04T06:42:05.609Z,624.38
2018-07-04T06:43:05.606Z,630.00
2018-07-04T06:44:05.644Z,635.63
2018-07-04T06:45:05.583Z,646.88
2018-07-04T06:46:05.576Z,652.50
2018-07-04T06:47:05.575Z,658.13
2018-07-04T06:48:05.560Z,675.00
2018-07-04T06:49:05.606Z,686.25
2018-07-04T06:50:05.548Z,691.88
2018-07-04T06:51:05.532Z,680.63
2018-07-04T06:52:05.525Z,675.00
2018-07-04T06:53:05.515Z,675.00
2018-07-04T06:54:05.523Z,652.50
2018-07-04T06:55:05.499Z,669.38
2018-07-04T06:56:05.496Z,669.38
2018-07-04T06:57:05.489Z,646.88
2018-07-04T06:58:05.471Z,635.63
2018-07-04T06:59:05.463Z,624.38
2018-07-04T07:00:05.457Z,630.00
2018-07-04T07:01:05.446Z,641.25
2018-07-04T07:02:05.437Z,658.13
2018-07-04T07:03:05.427Z,697.50
2018-07-04T07:04:05.416Z,708.75
2018-07-04T07:05:05.411Z,748.13
2018-07-04T07:06:05.398Z,770.63
2018-07-04T07:07:05.388Z,821.25
2018-07-04T07:08:05.438Z,832.50
2018-07-04T07:09:05.370Z,810.00
2018-07-04T07:10:05.361Z,770.63
2018-07-04T07:11:05.350Z,731.25
2018-07-04T07:12:05.341Z,697.50
2018-07-04T07:13:05.336Z,669.38
2018-07-04T07:14:05.322Z,669.38
2018-07-04T07:15:05.313Z,663.75
2018-07-04T07:16:05.303Z,663.75
2018-07-04T07:17:05.296Z,680.63
2018-07-04T07:18:05.284Z,725.63
2018-07-04T07:19:05.276Z,849.38
2018-07-04T07:20:05.278Z,1080.00
2018-07-04T07:21:05.272Z,1473.75
2018-07-04T07:22:05.251Z,1575.00
2018-07-04T07:23:05.240Z,1698.75
2018-07-04T07:24:05.230Z,2064.38
2018-07-04T07:25:05.223Z,1524.38
2018-07-04T07:26:05.212Z,2233.13
2018-07-04T07:27:05.213Z,1805.63
2018-07-04T07:28:05.197Z,1125.00
2018-07-04T07:29:05.190Z,1153.13
2018-07-04T07:30:05.183Z,1068.75
2018-07-04T07:31:05.172Z,956.25
2018-07-04T07:32:05.208Z,945.00
2018-07-04T07:33:05.156Z,950.63
2018-07-04T07:34:05.278Z,1051.88
2018-07-04T07:35:05.156Z,984.38
2018-07-04T07:36:05.134Z,1676.25
2018-07-04T07:37:05.127Z,1147.50
2018-07-04T07:38:05.119Z,1158.75
2018-07-04T07:39:05.110Z,1141.88
2018-07-04T07:40:05.111Z,1130.63
2018-07-04T07:41:05.097Z,1057.50
2018-07-04T07:42:05.106Z,1001.25
2018-07-04T07:43:05.086Z,990.00
2018-07-04T07:44:05.076Z,1018.13
2018-07-04T07:45:05.069Z,1051.88
2018-07-04T07:46:05.060Z,1057.50
2018-07-04T07:47:05.054Z,1046.25
2018-07-04T07:48:05.071Z,1029.38
2018-07-04T07:49:05.040Z,978.75
2018-07-04T07:50:05.030Z,973.13
2018-07-04T07:51:05.023Z,950.63
2018-07-04T07:52:05.016Z,933.75
2018-07-04T07:53:05.012Z,945.00
2018-07-04T07:54:05.060Z,973.13
2018-07-04T07:55:04.994Z,1012.50
2018-07-04T07:56:05.002Z,1051.88
2018-07-04T07:57:04.980Z,1068.75
2018-07-04T07:58:04.982Z,1085.63
2018-07-04T07:59:04.966Z,1051.88
2018-07-04T08:00:04.974Z,1108.13
2018-07-04T08:01:04.953Z,933.75
2018-07-04T08:02:04.943Z,905.63
2018-07-04T08:03:04.946Z,900.00
2018-07-04T08:04:04.931Z,888.75
2018-07-04T08:05:04.922Z,883.13
2018-07-04T08:06:04.913Z,911.25
2018-07-04T08:07:04.911Z,967.50
2018-07-04T08:08:04.900Z,1012.50
2018-07-04T08:09:04.897Z,1063.13
2018-07-04T08:10:04.887Z,1136.25
2018-07-04T08:11:04.880Z,1125.00
2018-07-04T08:12:04.871Z,1158.75
2018-07-04T08:13:04.869Z,1361.25
2018-07-04T08:14:04.859Z,1113.75
2018-07-04T08:15:04.848Z,1074.38
2018-07-04T08:16:04.856Z,1068.75
2018-07-04T08:17:04.832Z,1068.75
2018-07-04T08:18:04.827Z,1147.50
2018-07-04T08:19:04.822Z,1068.75
2018-07-04T08:20:04.822Z,1074.38
2018-07-04T08:21:04.805Z,1057.50
2018-07-04T08:22:04.798Z,1046.25
2018-07-04T08:23:04.791Z,1068.75
2018-07-04T08:24:04.793Z,1102.50
2018-07-04T08:25:04.785Z,1035.00
2018-07-04T08:26:04.768Z,1006.88
2018-07-04T08:27:04.804Z,1018.13
2018-07-04T08:28:04.755Z,990.00
2018-07-04T08:29:04.748Z,984.38
2018-07-04T08:30:04.741Z,990.00
2018-07-04T08:31:04.736Z,1006.88
2018-07-04T08:32:04.727Z,1040.63
2018-07-04T08:33:04.726Z,1057.50
2018-07-04T08:34:04.712Z,1057.50
2018-07-04T08:35:04.705Z,1046.25
2018-07-04T08:36:04.700Z,1068.75
2018-07-04T08:37:04.692Z,1006.88
2018-07-04T08:38:04.692Z,973.13
2018-07-04T08:39:04.680Z,956.25
2018-07-04T08:40:04.672Z,928.13
2018-07-04T08:41:04.663Z,916.88
2018-07-04T08:42:04.705Z,900.00
2018-07-04T08:43:04.648Z,978.75
2018-07-04T08:44:04.641Z,877.50
2018-07-04T08:45:04.644Z,894.38
2018-07-04T08:46:04.625Z,916.88
2018-07-04T08:47:04.620Z,888.75
2018-07-04T08:48:04.613Z,995.63
2018-07-04T08:49:04.605Z,1012.50
2018-07-04T08:50:04.596Z,1006.88
2018-07-04T08:51:04.600Z,928.13
2018-07-04T08:52:04.585Z,911.25
2018-07-04T08:53:04.580Z,888.75
2018-07-04T08:54:04.568Z,950.63
2018-07-04T08:55:04.561Z,916.88
2018-07-04T08:56:04.558Z,900.00
2018-07-04T08:57:04.546Z,939.38
2018-07-04T08:58:04.540Z,916.88
2018-07-04T08:59:04.540Z,945.00
2018-07-04T09:00:04.536Z,945.00
2018-07-04T09:01:04.527Z,967.50
2018-07-04T09:02:04.510Z,1130.63
2018-07-04T09:03:04.503Z,1248.75
2018-07-04T09:04:04.497Z,1057.50
2018-07-04T09:05:04.495Z,1485.00
2018-07-04T09:06:04.484Z,1406.25
2018-07-04T09:07:04.476Z,2030.63
2018-07-04T09:08:04.476Z,1051.88
2018-07-04T09:09:04.472Z,1906.88
2018-07-04T09:10:04.475Z,2694.38
2018-07-04T09:11:04.451Z,3206.25
2018-07-04T09:12:04.444Z,3279.38
2018-07-04T09:13:04.437Z,3335.63
2018-07-04T09:14:04.433Z,3341.25
2018-07-04T09:15:04.428Z,3330.00
2018-07-04T09:16:04.438Z,3369.38
2018-07-04T09:17:04.422Z,3408.75
2018-07-04T09:18:04.411Z,3526.88
2018-07-04T09:19:04.408Z,3673.13
2018-07-04T09:20:04.403Z,3577.50
2018-07-04T09:21:04.400Z,3341.25
2018-07-04T09:22:04.399Z,3352.50
2018-07-04T09:23:04.402Z,3121.88
2018-07-04T09:24:04.398Z,3436.88
2018-07-04T09:25:04.490Z,1946.25
2018-07-04T09:26:04.393Z,1063.13
2018-07-04T09:27:04.384Z,3020.63
2018-07-04T09:28:04.384Z,3650.63
2018-07-04T09:29:04.381Z,3583.13
2018-07-04T09:30:04.379Z,2531.25
2018-07-04T09:31:04.378Z,2947.50
2018-07-04T09:32:04.374Z,3841.88
2018-07-04T09:33:04.374Z,1209.38
2018-07-04T09:34:04.372Z,1186.88
2018-07-04T09:35:04.369Z,1198.13
2018-07-04T09:36:04.373Z,1333.13
2018-07-04T09:37:04.369Z,3645.00
2018-07-04T09:38:04.366Z,3138.75
2018-07-04T09:39:04.364Z,3138.75
2018-07-04T09:40:04.364Z,2756.25
2018-07-04T09:41:04.378Z,2986.88
2018-07-04T09:42:04.361Z,2851.88
2018-07-04T09:43:04.358Z,2705.63
2018-07-04T09:44:04.358Z,2266.88
2018-07-04T09:45:04.357Z,1968.75
2018-07-04T09:46:04.371Z,1203.75
2018-07-04T09:47:04.356Z,1299.38
2018-07-04T09:48:04.363Z,1192.50
2018-07-04T09:49:04.359Z,1293.75
2018-07-04T09:50:04.405Z,1125.00
2018-07-04T09:51:04.353Z,1057.50
2018-07-04T09:52:04.358Z,2598.75
2018-07-04T09:53:04.350Z,1125.00
2018-07-04T09:54:04.351Z,1074.38
2018-07-04T09:55:04.355Z,1091.25
2018-07-04T09:56:04.348Z,1102.50
2018-07-04T09:57:04.353Z,1080.00
2018-07-04T09:58:04.349Z,1085.63
2018-07-04T09:59:04.351Z,1209.38
2018-07-04T10:00:04.344Z,1305.00
2018-07-04T10:01:04.345Z,1518.75
2018-07-04T10:02:04.350Z,1693.13
2018-07-04T10:03:04.335Z,1479.38
2018-07-04T10:04:04.333Z,1535.63
2018-07-04T10:05:04.331Z,1192.50
2018-07-04T10:06:04.329Z,1513.13
2018-07-04T10:07:04.350Z,2536.88
2018-07-04T10:08:04.333Z,1895.63
2018-07-04T10:09:04.323Z,1282.50
2018-07-04T10:10:04.322Z,1811.25
2018-07-04T10:11:04.326Z,2182.50
2018-07-04T10:12:04.317Z,1575.00
2018-07-04T10:13:04.315Z,2610.00
2018-07-04T10:14:04.319Z,1743.75
2018-07-04T10:15:04.313Z,3768.75
2018-07-04T10:16:04.310Z,3971.25
2018-07-04T10:17:04.311Z,4128.75
2018-07-04T10:18:04.313Z,4123.13
2018-07-04T10:19:04.308Z,3931.88
2018-07-04T10:20:04.310Z,3622.50
2018-07-04T10:21:04.311Z,2458.13
2018-07-04T10:22:04.310Z,3555.00
2018-07-04T10:23:04.311Z,4179.38
2018-07-04T10:24:04.313Z,4336.88
2018-07-04T10:25:04.317Z,4398.75
2018-07-04T10:26:04.315Z,4426.88
2018-07-04T10:27:04.326Z,4230.00
2018-07-04T10:28:04.322Z,3060.00
2018-07-04T10:29:04.324Z,2750.63
2018-07-04T10:30:04.328Z,2503.13
2018-07-04T10:31:04.331Z,3183.75
2018-07-04T10:32:04.336Z,3583.13
2018-07-04T10:33:04.356Z,3892.50
2018-07-04T10:34:04.343Z,3971.25
2018-07-04T10:35:04.347Z,3836.25
2018-07-04T10:36:04.354Z,3931.88
2018-07-04T10:37:04.362Z,3920.63
2018-07-04T10:38:04.367Z,3943.13
2018-07-04T10:39:04.371Z,3858.75
2018-07-04T10:40:04.371Z,3808.13
2018-07-04T10:41:04.379Z,3909.38
2018-07-04T10:42:04.403Z,3931.88
2018-07-04T10:43:04.382Z,3881.25
2018-07-04T10:44:04.388Z,3729.38
2018-07-04T10:45:04.394Z,3622.50
2018-07-04T10:46:04.399Z,3785.63
2018-07-04T10:47:04.401Z,4173.75
2018-07-04T10:48:04.419Z,3915.00
2018-07-04T10:49:04.616Z,3836.25
2018-07-04T10:50:04.427Z,3352.50
2018-07-04T10:51:04.513Z,4111.88
2018-07-04T10:52:04.429Z,3999.38
2018-07-04T10:53:04.448Z,4083.75
2018-07-04T10:54:04.449Z,3836.25
2018-07-04T10:55:04.448Z,4117.50
2018-07-04T10:56:04.458Z,4044.38
2018-07-04T10:57:04.459Z,4089.38
2018-07-04T10:58:04.467Z,4089.38
2018-07-04T10:59:04.473Z,3943.13
2018-07-04T11:00:04.485Z,4027.50
2018-07-04T11:01:04.491Z,4151.25
2018-07-04T11:02:04.494Z,3870.00
2018-07-04T11:03:04.506Z,3785.63
2018-07-04T11:04:04.513Z,3960.00
2018-07-04T11:05:04.517Z,4061.25
2018-07-04T11:06:04.522Z,3943.13
2018-07-04T11:07:04.528Z,3774.38
2018-07-04T11:08:04.536Z,3667.50
2018-07-04T11:09:04.568Z,3841.88
2018-07-04T11:10:04.561Z,3633.75
2018-07-04T11:11:04.576Z,3262.50
2018-07-04T11:12:04.568Z,3150.00
2018-07-04T11:13:04.590Z,3667.50
2018-07-04T11:14:04.585Z,3825.00
2018-07-04T11:15:04.590Z,3510.00
2018-07-04T11:16:04.624Z,3386.25
2018-07-04T11:17:04.706Z,3701.25
2018-07-04T11:18:04.610Z,3735.00
2018-07-04T11:19:04.645Z,3048.75
2018-07-04T11:20:04.633Z,3161.25
2018-07-04T11:21:04.648Z,3442.50
2018-07-04T11:22:04.646Z,3521.25
2018-07-04T11:23:04.657Z,3380.63
2018-07-04T11:24:04.658Z,3307.50
2018-07-04T11:25:04.667Z,3088.13
2018-07-04T11:26:04.672Z,2953.13
2018-07-04T11:27:04.681Z,2778.75
2018-07-04T11:28:04.687Z,2649.38
2018-07-04T11:29:04.708Z,2548.13
2018-07-04T11:30:04.703Z,2666.25
2018-07-04T11:31:04.709Z,2857.50
2018-07-04T11:32:04.716Z,3060.00
2018-07-04T11:33:04.722Z,3054.38
2018-07-04T11:34:04.730Z,3093.75
2018-07-04T11:35:04.735Z,2936.25
2018-07-04T11:36:04.745Z,2992.50
2018-07-04T11:37:04.752Z,3144.38
2018-07-04T11:38:04.760Z,2986.88
2018-07-04T11:39:04.768Z,3043.13
2018-07-04T11:40:04.764Z,3026.25
2018-07-04T11:41:04.772Z,3099.38
2018-07-04T11:42:04.775Z,2801.25
2018-07-04T11:43:04.779Z,3161.25
2018-07-04T11:44:04.787Z,3397.50
2018-07-04T11:45:04.792Z,3144.38
2018-07-04T11:46:04.794Z,2840.63
2018-07-04T11:47:04.807Z,2655.00
2018-07-04T11:48:04.810Z,1867.50
2018-07-04T11:49:04.808Z,877.50
2018-07-04T11:50:04.813Z,765.00
2018-07-04T11:51:04.824Z,742.50
2018-07-04T11:52:04.833Z,714.38
2018-07-04T11:53:04.831Z,697.50
2018-07-04T11:54:04.833Z,686.25
2018-07-04T11:55:04.831Z,680.63
2018-07-04T11:56:04.843Z,680.63
2018-07-04T11:57:04.879Z,686.25
2018-07-04T11:58:04.856Z,686.25
2018-07-04T11:59:04.865Z,697.50
2018-07-04T12:00:04.842Z,680.63
2018-07-04T12:01:04.849Z,663.75
2018-07-04T12:02:04.855Z,658.13
2018-07-04T12:03:04.850Z,669.38
2018-07-04T12:04:04.853Z,686.25
2018-07-04T12:05:04.850Z,703.13
2018-07-04T12:06:04.859Z,703.13
2018-07-04T12:07:04.849Z,714.38
2018-07-04T12:08:04.854Z,714.38
2018-07-04T12:09:04.848Z,720.00
2018-07-04T12:10:04.851Z,691.88
2018-07-04T12:11:04.848Z,675.00
2018-07-04T12:12:04.857Z,663.75
2018-07-04T12:13:04.847Z,697.50
2018-07-04T12:14:04.846Z,720.00
2018-07-04T12:15:04.843Z,742.50
2018-07-04T12:16:04.848Z,759.38
2018-07-04T12:17:04.848Z,770.63
2018-07-04T12:18:04.855Z,776.25
2018-07-04T12:19:04.847Z,787.50
2018-07-04T12:20:04.939Z,770.63
2018-07-04T12:21:04.847Z,753.75
2018-07-04T12:22:04.851Z,725.63
2018-07-04T12:23:04.834Z,675.00
2018-07-04T12:24:04.837Z,624.38
2018-07-04T12:25:04.831Z,585.00
2018-07-04T12:26:04.829Z,562.50
2018-07-04T12:27:04.834Z,540.00
2018-07-04T12:28:04.824Z,528.75
2018-07-04T12:29:04.839Z,523.13
2018-07-04T12:30:04.820Z,517.50
2018-07-04T12:31:04.826Z,511.88
2018-07-04T12:32:04.929Z,511.88
2018-07-04T12:33:04.814Z,500.63
2018-07-04T12:34:04.812Z,489.38